createdAt,value
2024-03-10T00:01:05.121Z,19.60
2024-03-10T00:03:37.181Z,20.70
2024-03-10T00:06:10.227Z,21.70
2024-03-10T00:08:44.289Z,22.80
2024-03-10T00:11:16.673Z,22.10
2024-03-10T00:13:48.073Z,21.80
2024-03-10T00:16:19.448Z,21.80
2024-03-10T00:18:50.945Z,23.00
2024-03-10T00:21:24.099Z,22.40
2024-03-10T00:23:55.893Z,22.20
2024-03-10T00:26:28.709Z,21.80
2024-03-10T00:29:00.317Z,21.10
2024-03-10T00:31:32.086Z,22.60
2024-03-10T00:34:03.601Z,22.70
2024-03-10T00:36:34.823Z,21.90
2024-03-10T00:39:06.477Z,20.30
2024-03-10T00:41:38.181Z,22.30
2024-03-10T00:44:10.289Z,21.10
2024-03-10T00:46:42.059Z,21.60
2024-03-10T00:49:15.687Z,17.10
2024-03-10T00:51:47.283Z,19.80
2024-03-10T00:54:19.198Z,19.10
2024-03-10T00:56:51.116Z,20.80
2024-03-10T00:59:22.767Z,22.00
2024-03-10T01:01:54.844Z,20.70
2024-03-10T01:04:26.408Z,21.00
2024-03-10T01:06:58.326Z,24.00
2024-03-10T01:09:30.750Z,20.60
2024-03-10T01:12:02.818Z,20.80
2024-03-10T01:14:35.086Z,18.90
2024-03-10T01:17:08.095Z,19.60
2024-03-10T01:19:41.295Z,21.60
2024-03-10T01:22:12.939Z,18.70
2024-03-10T01:24:45.168Z,21.20
2024-03-10T01:27:16.604Z,20.20
2024-03-10T01:29:48.123Z,19.40
2024-03-10T01:32:20.303Z,19.20
2024-03-10T01:34:52.180Z,20.70
2024-03-10T01:37:23.548Z,21.20
2024-03-10T01:39:54.991Z,21.50
2024-03-10T01:42:27.209Z,19.30
2024-03-10T01:44:59.749Z,20.00
2024-03-10T01:47:31.234Z,19.40
2024-03-10T01:50:03.710Z,19.40
2024-03-10T01:52:36.094Z,21.20
2024-03-10T01:55:09.619Z,23.00
2024-03-10T01:57:41.979Z,19.30
2024-03-10T02:00:14.938Z,19.10
2024-03-10T02:02:46.442Z,20.60
2024-03-10T02:05:18.725Z,20.60
2024-03-10T02:07:50.201Z,22.70
2024-03-10T02:10:22.712Z,21.90
2024-03-10T02:12:54.010Z,20.30
2024-03-10T02:15:25.355Z,22.30
2024-03-10T02:17:58.282Z,20.60
2024-03-10T02:20:29.799Z,18.30
2024-03-10T02:23:01.431Z,22.20
2024-03-10T02:25:37.238Z,19.60
2024-03-10T02:28:22.022Z,19.30
2024-03-10T02:30:59.098Z,22.00
2024-03-10T02:33:47.786Z,21.60
2024-03-10T02:36:36.572Z,22.10
2024-03-10T02:39:25.417Z,21.70
2024-03-10T02:42:14.127Z,23.10
2024-03-10T02:45:03.112Z,22.90
2024-03-10T02:47:34.542Z,22.20
2024-03-10T02:50:07.365Z,20.90
2024-03-10T02:52:38.831Z,21.60
2024-03-10T02:55:13.426Z,23.20
2024-03-10T02:57:49.298Z,22.20
2024-03-10T03:00:22.682Z,21.40
2024-03-10T03:02:54.020Z,21.60
2024-03-10T03:05:27.956Z,22.10
2024-03-10T03:08:01.285Z,22.40
2024-03-10T03:10:32.653Z,21.10
2024-03-10T03:13:04.021Z,22.10
2024-03-10T03:15:35.320Z,21.30
2024-03-10T03:18:08.644Z,22.20
2024-03-10T03:20:41.334Z,20.20
2024-03-10T03:23:12.836Z,18.60
2024-03-10T03:25:44.170Z,20.40
2024-03-10T03:28:16.588Z,20.30
2024-03-10T03:30:49.389Z,21.00
2024-03-10T03:33:21.764Z,20.40
2024-03-10T03:35:53.630Z,20.40
2024-03-10T03:38:25.197Z,20.10
2024-03-10T03:40:56.516Z,20.00
2024-03-10T03:43:27.886Z,19.10
2024-03-10T03:45:59.711Z,19.20
2024-03-10T03:48:31.047Z,19.80
2024-03-10T03:51:02.381Z,19.00
2024-03-10T03:53:33.764Z,20.00
2024-03-10T03:56:05.228Z,18.50
2024-03-10T03:58:36.763Z,17.60
2024-03-10T04:01:08.351Z,16.70
2024-03-10T04:03:45.222Z,21.00
2024-03-10T04:06:23.282Z,22.50
2024-03-10T04:09:03.074Z,20.60
2024-03-10T04:11:34.684Z,20.90
2024-03-10T04:14:07.541Z,18.20
2024-03-10T04:16:40.299Z,19.90
2024-03-10T04:19:11.624Z,19.10
2024-03-10T04:21:43.021Z,21.80
2024-03-10T04:24:14.865Z,21.50
2024-03-10T04:26:46.671Z,20.50
2024-03-10T04:29:19.302Z,20.90
2024-03-10T04:31:51.569Z,21.30
2024-03-10T04:34:23.052Z,18.70
2024-03-10T04:36:54.620Z,19.00
2024-03-10T04:39:27.149Z,19.10
2024-03-10T04:41:58.420Z,20.60
2024-03-10T04:44:30.132Z,18.70
2024-03-10T04:47:01.423Z,19.50
2024-03-10T04:49:34.939Z,19.30
2024-03-10T04:52:10.300Z,18.50
2024-03-10T04:54:42.729Z,19.50
2024-03-10T04:57:13.998Z,16.10
2024-03-10T04:59:45.646Z,18.90
2024-03-10T05:02:17.013Z,18.10
2024-03-10T05:04:51.313Z,18.70
2024-03-10T05:07:22.705Z,19.10
2024-03-10T05:09:54.086Z,19.20
2024-03-10T05:12:25.696Z,20.60
2024-03-10T05:14:57.297Z,20.60
2024-03-10T05:17:31.167Z,19.50
2024-03-10T05:20:02.827Z,20.90
2024-03-10T05:22:36.356Z,21.50
2024-03-10T05:25:10.094Z,20.60
2024-03-10T05:27:42.960Z,21.80
2024-03-10T05:30:16.980Z,26.00
2024-03-10T05:32:48.662Z,26.50
2024-03-10T05:35:20.261Z,23.10
2024-03-10T05:37:51.660Z,21.60
2024-03-10T05:40:23.127Z,22.70
2024-03-10T05:42:54.341Z,21.90
2024-03-10T05:45:25.804Z,21.70
2024-03-10T05:47:58.758Z,21.00
2024-03-10T05:50:30.724Z,21.20
2024-03-10T05:53:02.205Z,20.60
2024-03-10T05:55:34.565Z,19.90
2024-03-10T05:58:06.265Z,22.20
2024-03-10T06:00:38.064Z,20.10
2024-03-10T06:03:10.732Z,21.80
2024-03-10T06:05:42.125Z,19.50
2024-03-10T06:08:13.642Z,19.80
2024-03-10T06:10:45.158Z,21.00
2024-03-10T06:13:17.158Z,22.20
2024-03-10T06:15:49.342Z,19.70
2024-03-10T06:18:26.501Z,19.80
2024-03-10T06:21:15.125Z,20.10
2024-03-10T06:24:03.872Z,21.10
2024-03-10T06:26:38.138Z,19.70
2024-03-10T06:29:09.940Z,21.10
2024-03-10T06:31:41.493Z,20.40
2024-03-10T06:34:13.009Z,20.20
2024-03-10T06:36:44.626Z,20.80
2024-03-10T06:39:21.222Z,21.80
2024-03-10T06:41:53.582Z,21.70
2024-03-10T06:44:25.069Z,26.20
2024-03-10T06:46:56.848Z,22.90
2024-03-10T06:49:28.595Z,20.70
2024-03-10T06:51:59.909Z,20.70
2024-03-10T06:54:31.371Z,23.30
2024-03-10T06:57:03.669Z,20.60
2024-03-10T06:59:35.747Z,21.00
2024-03-10T07:02:09.406Z,20.10
2024-03-10T07:04:42.018Z,19.90
2024-03-10T07:07:13.557Z,19.00
2024-03-10T07:09:44.776Z,20.40
2024-03-10T07:12:16.219Z,20.40
2024-03-10T07:14:49.168Z,19.00
2024-03-10T07:17:22.304Z,19.70
2024-03-10T07:19:53.921Z,19.00
2024-03-10T07:22:25.397Z,20.10
2024-03-10T07:24:57.192Z,20.50
2024-03-10T07:27:28.820Z,19.70
2024-03-10T07:30:00.345Z,19.20
2024-03-10T07:32:31.856Z,18.50
2024-03-10T07:35:04.190Z,19.00
2024-03-10T07:37:35.920Z,18.90
2024-03-10T07:40:16.920Z,18.80
2024-03-10T07:42:49.500Z,20.20
2024-03-10T07:45:21.029Z,18.70
2024-03-10T07:47:52.656Z,18.90
2024-03-10T07:50:25.546Z,18.10
2024-03-10T07:52:57.248Z,18.10
2024-03-10T07:55:32.113Z,17.10
2024-03-10T07:58:03.967Z,18.10
2024-03-10T08:00:35.769Z,18.20
2024-03-10T08:03:07.750Z,16.40
2024-03-10T08:05:39.446Z,18.40
2024-03-10T08:08:11.866Z,17.80
2024-03-10T08:10:47.961Z,18.20
2024-03-10T08:13:19.770Z,17.20
2024-03-10T08:15:51.680Z,17.20
2024-03-10T08:18:23.659Z,16.90
2024-03-10T08:20:55.603Z,16.60
2024-03-10T08:23:27.276Z,17.00
2024-03-10T08:26:01.599Z,15.80
2024-03-10T08:28:33.257Z,16.00
2024-03-10T08:31:05.851Z,16.80
2024-03-10T08:33:39.065Z,17.10
2024-03-10T08:36:12.328Z,16.30
2024-03-10T08:38:44.038Z,17.00
2024-03-10T08:41:16.028Z,14.90
2024-03-10T08:43:47.769Z,15.90
2024-03-10T08:46:19.153Z,14.40
2024-03-10T08:48:50.570Z,16.40
2024-03-10T08:51:22.282Z,16.20
2024-03-10T08:53:54.161Z,16.20
2024-03-10T08:56:26.031Z,18.20
2024-03-10T08:58:58.441Z,15.50
2024-03-10T09:01:29.938Z,14.60
2024-03-10T09:04:04.133Z,15.30
2024-03-10T09:06:36.338Z,15.90
2024-03-10T09:09:09.734Z,15.50
2024-03-10T09:11:42.133Z,15.20
2024-03-10T09:14:13.644Z,19.00
2024-03-10T09:16:45.975Z,14.20
2024-03-10T09:19:17.398Z,15.00
2024-03-10T09:21:50.706Z,14.10
2024-03-10T09:24:22.081Z,14.90
2024-03-10T09:26:53.550Z,13.70
2024-03-10T09:29:27.780Z,13.90
2024-03-10T09:32:00.672Z,12.60
2024-03-10T09:34:32.984Z,13.50
2024-03-10T09:37:08.502Z,14.10
2024-03-10T09:39:40.319Z,22.20
2024-03-10T09:42:15.801Z,18.70
2024-03-10T09:44:49.100Z,14.20
2024-03-10T09:47:21.711Z,14.90
2024-03-10T09:49:53.984Z,14.20
2024-03-10T09:52:26.099Z,15.40
2024-03-10T09:55:03.474Z,14.50
2024-03-10T09:57:36.383Z,17.80
2024-03-10T10:00:14.814Z,13.70
2024-03-10T10:02:48.025Z,12.80
2024-03-10T10:05:31.693Z,15.40
2024-03-10T10:08:09.536Z,15.10
2024-03-10T10:10:44.031Z,13.20
2024-03-10T10:13:28.550Z,15.70
2024-03-10T10:16:09.865Z,14.30
2024-03-10T10:18:51.361Z,12.20
2024-03-10T10:21:31.428Z,12.90
2024-03-10T10:24:03.582Z,12.30
2024-03-10T10:26:38.757Z,11.70
2024-03-10T10:29:13.273Z,10.50
2024-03-10T10:31:57.302Z,11.10
2024-03-10T10:34:29.934Z,11.90
2024-03-10T10:37:02.982Z,11.20
2024-03-10T10:39:36.622Z,11.10
2024-03-10T10:42:15.656Z,11.90
2024-03-10T10:47:26.785Z,11.60
2024-03-10T10:49:58.635Z,10.30
2024-03-10T10:52:31.155Z,11.10
2024-03-10T10:55:03.994Z,10.40
2024-03-10T10:57:42.723Z,10.90
2024-03-10T11:00:30.360Z,11.70
2024-03-10T11:03:16.795Z,13.20
2024-03-10T11:06:10.430Z,11.40
2024-03-10T11:08:44.185Z,11.70
2024-03-10T11:13:50.154Z,10.90
2024-03-10T11:16:27.448Z,11.20
2024-03-10T11:19:16.035Z,10.10
2024-03-10T11:21:51.596Z,11.60
2024-03-10T11:24:27.852Z,10.60
2024-03-10T11:27:17.380Z,9.80
2024-03-10T11:29:50.401Z,9.50
2024-03-10T11:32:37.076Z,10.30
2024-03-10T11:35:11.864Z,10.00
2024-03-10T11:40:17.764Z,10.10
2024-03-10T11:42:50.550Z,9.60
2024-03-10T11:45:27.084Z,10.30
2024-03-10T11:48:00.610Z,9.80
2024-03-10T11:50:32.652Z,10.70
2024-03-10T11:53:05.185Z,10.40
2024-03-10T11:55:36.943Z,11.30
2024-03-10T11:58:10.459Z,10.30
2024-03-10T12:00:42.750Z,9.90
2024-03-10T12:03:14.908Z,11.00
2024-03-10T12:05:46.712Z,13.50
2024-03-10T12:08:22.310Z,11.10
2024-03-10T12:11:02.431Z,12.00
2024-03-10T12:13:34.751Z,11.80
2024-03-10T12:16:07.857Z,10.40
2024-03-10T12:18:42.551Z,12.60
2024-03-10T12:23:48.820Z,11.50
2024-03-10T12:26:21.381Z,10.70
2024-03-10T12:28:53.762Z,12.90
2024-03-10T12:31:30.364Z,10.70
2024-03-10T12:34:04.347Z,11.10
2024-03-10T12:36:37.054Z,11.00
2024-03-10T12:39:12.970Z,10.40
2024-03-10T12:41:46.236Z,10.70
2024-03-10T12:44:18.155Z,9.60
2024-03-10T12:46:50.264Z,10.60
2024-03-10T12:49:22.248Z,11.00
2024-03-10T12:51:54.378Z,9.20
2024-03-10T12:54:25.974Z,9.40
2024-03-10T12:56:57.390Z,9.20
2024-03-10T12:59:29.551Z,8.60
2024-03-10T13:02:01.953Z,7.80
2024-03-10T13:04:33.973Z,7.70
2024-03-10T13:07:06.400Z,6.60
2024-03-10T13:09:38.145Z,6.30
2024-03-10T13:12:12.163Z,6.20
2024-03-10T13:14:43.962Z,6.30
2024-03-10T13:17:15.751Z,6.60
2024-03-10T13:19:47.226Z,6.10
2024-03-10T13:22:19.981Z,7.00
2024-03-10T13:24:51.704Z,6.30
2024-03-10T13:27:23.380Z,6.20
2024-03-10T13:29:54.692Z,10.30
2024-03-10T13:32:26.444Z,6.50
2024-03-10T13:34:58.356Z,7.40
2024-03-10T13:37:30.017Z,7.30
2024-03-10T13:40:05.622Z,6.90
2024-03-10T13:42:39.019Z,6.60
2024-03-10T13:45:16.981Z,7.40
2024-03-10T13:47:54.703Z,6.20
2024-03-10T13:50:27.227Z,5.90
2024-03-10T13:52:59.036Z,6.00
2024-03-10T13:55:31.730Z,6.40
2024-03-10T13:58:05.902Z,6.90
2024-03-10T14:00:39.193Z,7.00
2024-03-10T14:03:11.810Z,6.10
2024-03-10T14:05:43.313Z,5.50
2024-03-10T14:08:15.335Z,5.60
2024-03-10T14:10:47.574Z,5.50
2024-03-10T14:13:20.300Z,5.30
2024-03-10T14:15:51.763Z,5.50
2024-03-10T14:18:25.316Z,5.70
2024-03-10T14:20:56.821Z,5.90
2024-03-10T14:23:28.286Z,5.80
2024-03-10T14:25:59.744Z,5.40
2024-03-10T14:28:32.113Z,5.70
2024-03-10T14:31:04.605Z,5.70
2024-03-10T14:33:36.197Z,6.20
2024-03-10T14:36:09.969Z,6.40
2024-03-10T14:38:42.443Z,5.20
2024-03-10T14:41:14.064Z,5.50
2024-03-10T14:43:46.121Z,5.30
2024-03-10T14:46:23.736Z,5.70
2024-03-10T14:48:54.974Z,5.50
2024-03-10T14:51:27.758Z,5.80
2024-03-10T14:53:59.330Z,6.30
2024-03-10T14:56:32.311Z,6.00
2024-03-10T14:59:03.910Z,5.70
2024-03-10T15:01:36.779Z,5.80
2024-03-10T15:04:10.552Z,5.20
2024-03-10T15:06:43.202Z,5.60
2024-03-10T15:09:16.357Z,5.90
2024-03-10T15:11:48.331Z,6.40
2024-03-10T15:14:21.323Z,7.10
2024-03-10T15:16:53.346Z,6.80
2024-03-10T15:19:26.684Z,6.50
2024-03-10T15:21:59.928Z,6.60
2024-03-10T15:24:33.614Z,6.00
2024-03-10T15:27:08.190Z,6.70
2024-03-10T15:29:40.275Z,6.90
2024-03-10T15:32:13.532Z,6.60
2024-03-10T15:34:45.264Z,6.00
2024-03-10T15:37:19.276Z,6.70
2024-03-10T15:39:53.135Z,6.40
2024-03-10T15:42:25.517Z,6.30
2024-03-10T15:44:59.824Z,6.60
2024-03-10T15:47:36.676Z,7.50
2024-03-10T15:50:13.228Z,6.90
2024-03-10T15:55:19.261Z,7.20
2024-03-10T15:57:52.913Z,7.80
2024-03-10T16:00:27.218Z,7.20
2024-03-10T16:03:04.431Z,7.20
2024-03-10T16:05:40.606Z,6.80
2024-03-10T16:08:13.665Z,6.90
2024-03-10T16:10:48.190Z,6.30
2024-03-10T16:13:26.789Z,7.30
2024-03-10T16:15:59.274Z,8.20
2024-03-10T16:18:31.835Z,7.60
2024-03-10T16:21:05.242Z,8.30
2024-03-10T16:23:37.100Z,8.10
2024-03-10T16:26:09.697Z,8.80
2024-03-10T16:28:41.473Z,16.80
2024-03-10T16:31:14.876Z,14.70
2024-03-10T16:33:49.953Z,11.70
2024-03-10T16:36:21.665Z,9.90
2024-03-10T16:38:58.955Z,22.10
2024-03-10T16:41:34.436Z,19.30
2024-03-10T16:44:08.250Z,20.50
2024-03-10T16:46:44.778Z,12.70
2024-03-10T16:49:31.136Z,21.40
2024-03-10T16:52:09.247Z,32.60
2024-03-10T16:57:41.109Z,9.50
2024-03-10T17:00:21.730Z,8.50
2024-03-10T17:02:56.921Z,10.80
2024-03-10T17:05:31.688Z,10.90
2024-03-10T17:10:43.775Z,31.70
2024-03-10T17:13:23.530Z,12.90
2024-03-10T17:16:05.096Z,16.60
2024-03-10T17:18:42.152Z,14.10
2024-03-10T17:21:22.367Z,9.90
2024-03-10T17:23:57.345Z,11.00
2024-03-10T17:26:32.689Z,10.40
2024-03-10T17:29:08.548Z,9.40
2024-03-10T17:31:43.891Z,7.40
2024-03-10T17:34:19.205Z,8.00
2024-03-10T17:36:52.759Z,9.60
2024-03-10T17:39:27.231Z,10.90
2024-03-10T17:41:59.912Z,10.20
2024-03-10T17:44:37.002Z,7.80
2024-03-10T17:47:11.182Z,8.90
2024-03-10T17:49:45.238Z,8.80
2024-03-10T17:52:22.505Z,10.00
2024-03-10T17:54:58.537Z,8.10
2024-03-10T17:57:32.729Z,7.80
2024-03-10T18:00:09.194Z,7.50
2024-03-10T18:02:45.753Z,6.80
2024-03-10T18:05:29.575Z,6.80
2024-03-10T18:08:06.930Z,6.30
2024-03-10T18:10:46.920Z,6.40
2024-03-10T18:13:22.270Z,6.80
2024-03-10T18:16:01.587Z,6.40
2024-03-10T18:18:42.867Z,6.40
2024-03-10T18:21:15.700Z,6.70
2024-03-10T18:23:58.782Z,7.10
2024-03-10T18:26:35.063Z,7.20
2024-03-10T18:29:09.339Z,6.90
2024-03-10T18:31:44.372Z,7.70
2024-03-10T18:34:19.832Z,8.70
2024-03-10T18:36:52.836Z,7.80
2024-03-10T18:39:29.637Z,7.50
2024-03-10T18:42:06.588Z,7.40
2024-03-10T18:44:39.970Z,7.00
2024-03-10T18:47:15.069Z,8.10
2024-03-10T18:49:49.976Z,7.10
2024-03-10T18:52:22.919Z,7.60
2024-03-10T18:54:56.019Z,7.70
2024-03-10T18:57:30.129Z,7.70
2024-03-10T19:00:03.052Z,7.40
2024-03-10T19:02:37.000Z,8.20
2024-03-10T19:05:13.541Z,8.20
2024-03-10T19:07:49.576Z,7.30
2024-03-10T19:10:21.972Z,7.80
2024-03-10T19:12:54.646Z,7.20
2024-03-10T19:15:27.179Z,7.40
2024-03-10T19:18:01.117Z,7.40
2024-03-10T19:20:35.009Z,7.30
2024-03-10T19:23:09.132Z,7.70
2024-03-10T19:25:42.469Z,8.00
2024-03-10T19:28:20.478Z,8.20
2024-03-10T19:31:06.634Z,8.00
2024-03-10T19:33:44.795Z,7.40
2024-03-10T19:36:18.389Z,7.90
2024-03-10T19:38:52.688Z,8.00
2024-03-10T19:41:27.291Z,8.40
2024-03-10T19:43:59.580Z,8.10
2024-03-10T19:46:33.575Z,8.80
2024-03-10T19:49:06.068Z,8.30
2024-03-10T19:51:39.595Z,8.00
2024-03-10T19:54:17.660Z,7.70
2024-03-10T19:57:10.710Z,7.40
2024-03-10T19:59:50.409Z,8.40
2024-03-10T20:02:27.211Z,7.60
2024-03-10T20:05:02.075Z,7.60
2024-03-10T20:07:37.056Z,7.90
2024-03-10T20:10:14.549Z,7.90
2024-03-10T20:12:57.125Z,7.40
2024-03-10T20:15:36.166Z,8.90
2024-03-10T20:18:14.895Z,7.60
2024-03-10T20:20:55.570Z,7.20
2024-03-10T20:23:31.880Z,8.20
2024-03-10T20:26:09.681Z,7.50
2024-03-10T20:28:49.705Z,7.40
2024-03-10T20:31:25.566Z,7.60
2024-03-10T20:34:01.287Z,7.40
2024-03-10T20:36:35.031Z,6.70
2024-03-10T20:39:24.816Z,7.80
2024-03-10T20:42:02.499Z,7.70
2024-03-10T20:44:38.629Z,7.00
2024-03-10T20:47:12.386Z,7.20
2024-03-10T20:49:45.655Z,6.70
2024-03-10T20:52:19.050Z,6.20
2024-03-10T20:54:52.782Z,6.70
2024-03-10T20:57:26.257Z,7.60
2024-03-10T20:59:58.499Z,6.90
2024-03-10T21:02:31.706Z,6.40
2024-03-10T21:05:04.466Z,7.50
2024-03-10T21:07:38.387Z,7.00
2024-03-10T21:10:16.396Z,6.90
2024-03-10T21:12:48.893Z,6.60
2024-03-10T21:15:22.689Z,7.50
2024-03-10T21:17:56.539Z,7.20
2024-03-10T21:20:32.500Z,7.40
2024-03-10T21:23:06.540Z,7.30
2024-03-10T21:25:42.328Z,8.10
2024-03-10T21:28:15.759Z,7.30
2024-03-10T21:30:47.740Z,7.40
2024-03-10T21:33:20.098Z,6.90
2024-03-10T21:35:52.626Z,7.90
2024-03-10T21:38:24.471Z,7.70
2024-03-10T21:40:57.139Z,7.90
2024-03-10T21:43:29.419Z,7.70
2024-03-10T21:46:02.635Z,7.20
2024-03-10T21:48:34.486Z,8.00
2024-03-10T21:51:07.419Z,8.10
2024-03-10T21:53:39.480Z,8.40
2024-03-10T21:56:12.077Z,8.10
2024-03-10T21:58:43.811Z,7.20
2024-03-10T22:01:15.534Z,8.60
2024-03-10T22:03:48.081Z,8.00
2024-03-10T22:06:20.630Z,8.50
2024-03-10T22:08:53.460Z,8.80
2024-03-10T22:11:25.351Z,9.00
2024-03-10T22:13:59.802Z,8.80
2024-03-10T22:16:33.081Z,8.60
2024-03-10T22:19:04.673Z,8.00
2024-03-10T22:21:37.790Z,7.70
2024-03-10T22:24:09.899Z,8.40
2024-03-10T22:26:41.708Z,8.40
2024-03-10T22:29:13.997Z,8.40
2024-03-10T22:31:45.471Z,8.60
2024-03-10T22:34:17.188Z,8.40
2024-03-10T22:36:49.730Z,8.50
2024-03-10T22:39:21.370Z,8.70
2024-03-10T22:41:55.161Z,8.30
2024-03-10T22:44:27.994Z,8.90
2024-03-10T22:47:00.481Z,8.20
2024-03-10T22:49:32.822Z,8.60
2024-03-10T22:52:04.961Z,8.30
2024-03-10T22:54:37.162Z,8.40
2024-03-10T22:57:10.292Z,7.70
2024-03-10T22:59:42.709Z,8.30
2024-03-10T23:02:14.630Z,7.80
2024-03-10T23:04:49.353Z,8.10
2024-03-10T23:07:21.038Z,8.90
2024-03-10T23:09:52.727Z,8.80
2024-03-10T23:12:25.272Z,7.60
2024-03-10T23:14:56.918Z,8.00
2024-03-10T23:17:28.842Z,8.50
2024-03-10T23:20:01.472Z,8.30
2024-03-10T23:22:33.270Z,7.60
2024-03-10T23:25:05.983Z,6.70
2024-03-10T23:27:39.014Z,8.60
2024-03-10T23:30:14.038Z,8.00
2024-03-10T23:32:46.293Z,8.70
2024-03-10T23:35:19.746Z,10.00
2024-03-10T23:37:51.857Z,9.60
2024-03-10T23:40:25.237Z,9.80
2024-03-10T23:42:58.180Z,9.60
2024-03-10T23:45:31.452Z,9.70
2024-03-10T23:48:03.625Z,9.40
2024-03-10T23:50:35.792Z,9.70
2024-03-10T23:53:08.407Z,9.00
2024-03-10T23:55:43.956Z,9.20
2024-03-10T23:58:15.555Z,9.50
